Time;durP1;ratioP1;P1;durP2;ratioP2;P2;SDS_P1;SDS_P2;PMS_P1;PMS_P2;Temp;Humidity;BMP_temperature;BMP_pressure;BME280_temperature;BME280_humidity;BME280_pressure;Samples;Min_cycle;Max_cycle;Signal;HPM_P1;HPM_P2
2023/12/14 00:00:49;;;;;;;102.57;27.98;;;;;;;4.09;100.00;99791.09;5010403;28;20522;-69
2023/12/14 00:03:14;;;;;;;86.97;26.85;;;;;;;4.07;100.00;99794.38;5010126;28;20030;-69
2023/12/14 00:05:40;;;;;;;66.70;26.85;;;;;;;3.76;100.00;99763.00;5024501;28;20499;-70
2023/12/14 00:08:05;;;;;;;84.32;28.52;;;;;;;4.13;100.00;99822.81;5010263;28;20105;-69
2023/12/14 00:10:31;;;;;;;125.05;27.20;;;;;;;4.16;100.00;99833.16;5010412;28;20037;-69
2023/12/14 00:12:56;;;;;;;114.90;27.30;;;;;;;4.14;100.00;99816.91;5010252;28;20029;-69
2023/12/14 00:15:22;;;;;;;162.15;34.85;;;;;;;3.84;100.00;99778.75;5008818;28;20048;-69
2023/12/14 00:17:47;;;;;;;144.13;42.55;;;;;;;3.92;100.00;99777.44;5010271;28;20141;-70
2023/12/14 00:20:14;;;;;;;145.43;44.88;;;;;;;4.12;100.00;99810.81;5010222;28;20030;-70
2023/12/14 00:22:40;;;;;;;130.98;34.03;;;;;;;3.81;100.00;99764.09;5010447;28;20041;-70
2023/12/14 00:25:05;;;;;;;181.50;45.55;;;;;;;3.90;100.00;99786.72;5010137;28;20038;-70
2023/12/14 00:27:31;;;;;;;173.15;40.20;;;;;;;4.11;100.00;99824.38;5010402;28;20026;-70
2023/12/14 00:29:56;;;;;;;130.13;32.40;;;;;;;4.03;100.00;99809.53;5010196;28;20424;-70
2023/12/14 00:32:22;;;;;;;98.68;27.25;;;;;;;4.04;100.00;99820.66;5009915;28;20022;-71
2023/12/14 00:34:48;;;;;;;101.95;32.67;;;;;;;4.05;100.00;99824.97;5010126;28;20502;-71
2023/12/14 00:37:13;;;;;;;76.95;30.55;;;;;;;4.08;100.00;99831.91;5009597;28;20069;-70
2023/12/14 00:39:39;;;;;;;89.30;27.60;;;;;;;4.07;100.00;99833.56;5010104;28;20026;-70
2023/12/14 00:42:04;;;;;;;62.05;27.40;;;;;;;3.99;100.00;99816.97;5009977;28;20476;-70
2023/12/14 00:44:30;;;;;;;95.05;29.48;;;;;;;3.80;100.00;99780.25;5010791;28;20033;-70
2023/12/14 00:46:55;;;;;;;87.85;27.48;;;;;;;3.68;100.00;99766.84;5013423;28;20030;-70
2023/12/14 00:49:21;;;;;;;86.00;28.15;;;;;;;3.58;100.00;99759.47;5013657;28;20373;-71
2023/12/14 00:51:46;;;;;;;67.10;27.30;;;;;;;3.58;100.00;99762.91;5013091;28;20037;-71
2023/12/14 00:54:12;;;;;;;74.65;26.23;;;;;;;3.63;100.00;99769.13;5013460;28;20088;-70
2023/12/14 00:56:37;;;;;;;68.35;27.77;;;;;;;4.01;100.00;99826.47;5013343;28;20026;-70
2023/12/14 00:59:03;;;;;;;98.80;26.25;;;;;;;4.03;100.00;99840.19;5013186;28;20041;-70
2023/12/14 01:01:28;;;;;;;63.67;26.58;;;;;;;3.93;100.00;99821.75;5011841;28;20037;-70
2023/12/14 01:03:54;;;;;;;70.20;26.83;;;;;;;3.96;100.00;99815.13;5013119;28;20034;-70
2023/12/14 01:06:19;;;;;;;81.15;26.35;;;;;;;4.00;100.00;99826.38;5012973;28;20456;-70
2023/12/14 01:08:45;;;;;;;83.72;26.55;;;;;;;3.98;100.00;99825.44;5013261;28;20491;-71
2023/12/14 01:11:10;;;;;;;58.80;25.38;;;;;;;3.93;100.00;99820.06;5012692;28;20076;-70
2023/12/14 01:13:36;;;;;;;73.95;27.75;;;;;;;3.99;100.00;99820.38;5012018;28;20507;-70
2023/12/14 01:16:01;;;;;;;91.18;28.05;;;;;;;3.94;100.00;99803.06;5012178;28;20046;-70
2023/12/14 01:18:27;;;;;;;90.00;25.45;;;;;;;4.03;100.00;99819.75;5003973;28;20038;-70
2023/12/14 01:20:52;;;;;;;65.05;26.38;;;;;;;3.95;100.00;99800.59;4991550;28;20115;-71
2023/12/14 01:23:18;;;;;;;84.35;24.75;;;;;;;3.59;100.00;99754.47;5012817;28;20030;-71
2023/12/14 01:25:44;;;;;;;64.78;24.35;;;;;;;2.88;100.00;99667.34;5001154;28;20065;-70
2023/12/14 01:28:09;;;;;;;83.88;25.70;;;;;;;3.50;100.00;99774.38;5000241;28;20061;-71
2023/12/14 01:30:35;;;;;;;132.77;27.33;;;;;;;3.65;100.00;99790.53;5012044;28;20412;-70
2023/12/14 01:33:00;;;;;;;117.53;27.33;;;;;;;3.74;100.00;99785.03;5004956;28;20037;-70
2023/12/14 01:35:26;;;;;;;62.85;27.88;;;;;;;3.56;100.00;99756.84;4993660;28;20551;-70
2023/12/14 01:37:51;;;;;;;63.30;29.35;;;;;;;3.76;100.00;99787.66;4993677;28;20030;-70
2023/12/14 01:40:19;;;;;;;57.75;29.60;;;;;;;3.76;100.00;99785.09;4994958;28;20382;-70
2023/12/14 01:42:45;;;;;;;56.40;29.35;;;;;;;3.63;100.00;99771.69;5003849;28;20034;-71
2023/12/14 01:45:11;;;;;;;78.75;33.90;;;;;;;3.60;100.00;99758.78;5007562;28;20040;-70
2023/12/14 01:47:36;;;;;;;79.78;28.35;;;;;;;3.78;100.00;99770.75;5006826;28;20041;-70
2023/12/14 01:50:02;;;;;;;69.97;28.30;;;;;;;3.76;100.00;99773.19;5008960;28;20060;-70
2023/12/14 01:52:27;;;;;;;66.60;27.48;;;;;;;3.75;100.00;99762.91;5011103;28;20026;-70
2023/12/14 01:54:55;;;;;;;59.92;28.90;;;;;;;3.47;100.00;99725.72;5011565;28;20061;-70
2023/12/14 01:57:20;;;;;;;61.35;26.98;;;;;;;3.59;100.00;99754.47;5011374;28;20507;-70
2023/12/14 01:59:46;;;;;;;55.45;26.40;;;;;;;3.39;100.00;99749.16;5012207;28;20026;-70
2023/12/14 02:02:11;;;;;;;53.47;28.52;;;;;;;3.29;100.00;99731.59;5012013;28;20026;-70
2023/12/14 02:04:37;;;;;;;48.72;27.23;;;;;;;3.17;100.00;99703.75;5009769;28;20030;-70
2023/12/14 02:07:03;;;;;;;54.65;28.75;;;;;;;3.62;100.00;99769.91;5012308;28;20030;-70
2023/12/14 02:09:28;;;;;;;53.67;28.77;;;;;;;3.30;100.00;99714.63;5012148;28;20502;-70
2023/12/14 02:11:54;;;;;;;55.55;29.35;;;;;;;3.68;100.00;99777.03;5011963;28;20025;-70
2023/12/14 02:14:22;;;;;;;55.20;28.48;;;;;;;3.29;100.00;99705.19;5011996;28;20502;-70
2023/12/14 02:16:48;;;;;;;54.33;29.13;;;;;;;3.33;100.00;99709.69;5012068;28;20065;-70
2023/12/14 02:19:13;;;;;;;55.30;29.23;;;;;;;3.17;100.00;99678.25;5011675;28;20041;-70
2023/12/14 02:21:38;;;;;;;52.58;29.40;;;;;;;3.26;100.00;99687.19;5012077;28;20508;-70
2023/12/14 02:24:04;;;;;;;50.78;27.10;;;;;;;3.31;100.00;99711.28;5010413;28;20099;-70
2023/12/14 02:26:29;;;;;;;54.40;27.15;;;;;;;3.63;100.00;99760.59;5026053;28;20049;-69
2023/12/14 02:28:55;;;;;;;51.28;29.08;;;;;;;3.71;100.00;99759.31;5011764;28;20022;-69
2023/12/14 02:31:22;;;;;;;53.30;25.67;;;;;;;3.73;100.00;99776.47;5011590;28;20381;-69
2023/12/14 02:33:47;;;;;;;52.22;28.35;;;;;;;3.69;100.00;99782.22;5011516;28;20109;-70
2023/12/14 02:36:13;;;;;;;46.47;25.58;;;;;;;3.60;100.00;99771.53;5011645;28;20487;-72
2023/12/14 02:38:38;;;;;;;52.22;28.35;;;;;;;3.65;100.00;99790.53;5011413;28;20104;-71
2023/12/14 02:41:04;;;;;;;46.95;27.52;;;;;;;3.47;100.00;99743.59;5011122;28;20029;-71
2023/12/14 02:43:29;;;;;;;55.03;27.77;;;;;;;3.62;100.00;99769.91;5011469;28;20062;-70
2023/12/14 02:46:01;;;;;;;53.58;27.08;;;;;;;3.56;100.00;99773.03;5011419;28;20034;-70
2023/12/14 02:48:27;;;;;;;56.85;27.45;;;;;;;3.55;100.00;99763.63;5011069;28;20041;-70
2023/12/14 02:50:52;;;;;;;58.58;30.02;;;;;;;3.43;100.00;99732.34;5011411;28;20105;-70
2023/12/14 02:53:18;;;;;;;63.22;31.65;;;;;;;3.56;100.00;99738.97;5011328;28;20028;-71
2023/12/14 02:55:43;;;;;;;57.25;28.38;;;;;;;3.69;100.00;99761.81;5011267;28;20070;-70
2023/12/14 02:58:09;;;;;;;61.63;30.90;;;;;;;3.67;100.00;99758.28;5009893;28;20059;-71
2023/12/14 03:00:34;;;;;;;62.03;31.90;;;;;;;3.57;100.00;99753.50;5010944;28;20044;-70
2023/12/14 03:03:00;;;;;;;61.92;32.60;;;;;;;3.53;100.00;99754.13;5010660;28;20053;-70
2023/12/14 03:05:25;;;;;;;64.20;31.50;;;;;;;3.52;100.00;99767.69;5011162;28;20037;-70
2023/12/14 03:07:50;;;;;;;67.03;31.40;;;;;;;3.50;100.00;99774.38;5010639;28;20038;-70
2023/12/14 03:10:16;;;;;;;66.68;30.38;;;;;;;3.22;100.00;99762.66;5010911;28;20041;-70
2023/12/14 03:12:41;;;;;;;62.38;30.48;;;;;;;2.29;100.00;99632.66;5011137;28;20041;-70
2023/12/14 03:15:07;;;;;;;65.55;31.65;;;;;;;3.05;100.00;99777.94;5010867;28;20076;-71
2023/12/14 03:17:33;;;;;;;67.10;31.67;;;;;;;2.99;100.00;99771.59;5011204;28;20053;-70
2023/12/14 03:19:58;;;;;;;61.55;30.25;;;;;;;2.99;100.00;99769.94;5011046;28;20025;-70
2023/12/14 03:22:23;;;;;;;65.30;31.40;;;;;;;2.94;100.00;99750.97;5010953;28;20034;-71
2023/12/14 03:24:49;;;;;;;60.95;31.13;;;;;;;2.99;100.00;99772.50;5010797;28;20029;-70
2023/12/14 03:27:14;;;;;;;56.47;28.30;;;;;;;2.87;100.00;99753.94;5011018;28;20041;-70
2023/12/14 03:29:40;;;;;;;66.88;32.20;;;;;;;2.85;100.00;99765.72;5010769;28;20051;-70
2023/12/14 03:32:06;;;;;;;65.28;30.20;;;;;;;2.88;100.00;99766.78;5010562;28;20026;-71
2023/12/14 03:34:31;;;;;;;67.45;30.73;;;;;;;2.80;100.00;99756.94;5011000;28;20088;-70
2023/12/14 03:36:57;;;;;;;66.82;32.20;;;;;;;2.81;100.00;99771.44;5010954;28;20105;-70
2023/12/14 03:39:22;;;;;;;66.32;31.38;;;;;;;2.83;100.00;99768.19;5010638;28;20026;-70
2023/12/14 03:41:48;;;;;;;69.53;30.98;;;;;;;2.86;100.00;99765.78;5002551;28;20030;-70
2023/12/14 03:44:13;;;;;;;67.90;30.75;;;;;;;2.92;100.00;99770.38;5005457;28;20053;-70
2023/12/14 03:46:39;;;;;;;65.60;30.88;;;;;;;2.96;100.00;99772.28;5024810;28;20507;-70
2023/12/14 03:49:04;;;;;;;70.00;32.22;;;;;;;2.97;100.00;99756.22;5010842;28;20030;-70
2023/12/14 03:51:30;;;;;;;64.72;32.40;;;;;;;2.97;100.00;99740.91;5010614;28;20057;-70
2023/12/14 03:53:55;;;;;;;62.63;30.83;;;;;;;3.14;100.00;99757.16;5009297;28;20041;-70
2023/12/14 03:56:21;;;;;;;60.47;32.05;;;;;;;3.10;100.00;99770.50;5010451;28;20073;-70
2023/12/14 03:58:47;;;;;;;58.92;29.98;;;;;;;3.15;100.00;99773.31;5010321;28;20121;-70
2023/12/14 04:01:20;;;;;;;60.40;28.90;;;;;;;3.06;100.00;99766.03;5010118;28;20026;-70
2023/12/14 04:03:46;;;;;;;64.47;31.00;;;;;;;2.95;100.00;99774.78;5010733;28;20030;-70
2023/12/14 04:06:15;;;;;;;61.63;31.27;;;;;;;2.91;100.00;99783.91;5010432;28;20030;-70
2023/12/14 04:08:41;;;;;;;62.33;29.73;;;;;;;2.92;100.00;99765.28;5010377;28;20038;-70
2023/12/14 04:11:07;;;;;;;58.88;29.02;;;;;;;2.93;100.00;99769.59;5010311;28;20081;-70
2023/12/14 04:13:34;;;;;;;57.00;29.40;;;;;;;2.91;100.00;99766.94;5008166;28;20114;-70
2023/12/14 04:16:00;;;;;;;57.80;28.42;;;;;;;2.93;100.00;99761.94;5010010;28;20104;-70
2023/12/14 04:18:26;;;;;;;55.00;28.80;;;;;;;2.99;100.00;99759.72;5010085;28;20050;-70
2023/12/14 04:20:52;;;;;;;59.60;30.77;;;;;;;2.99;100.00;99724.03;5012824;28;20103;-70
2023/12/14 04:23:18;;;;;;;53.80;29.50;;;;;;;3.17;100.00;99772.63;5014015;28;20034;-71
2023/12/14 04:25:43;;;;;;;59.90;30.05;;;;;;;2.99;100.00;99741.88;5014243;28;20022;-70
2023/12/14 04:28:09;;;;;;;54.83;28.35;;;;;;;3.20;100.00;99769.34;5013953;28;20034;-70
2023/12/14 04:30:34;;;;;;;50.88;28.55;;;;;;;3.21;100.00;99771.97;5013795;28;20063;-70
2023/12/14 04:33:00;;;;;;;52.83;29.20;;;;;;;3.23;100.00;99769.53;5014113;28;20026;-70
2023/12/14 04:35:26;;;;;;;53.30;27.17;;;;;;;3.16;100.00;99777.63;5013876;28;20030;-70
2023/12/14 04:37:52;;;;;;;55.55;30.30;;;;;;;2.81;100.00;99730.66;5028202;28;20496;-70
2023/12/14 04:40:17;;;;;;;50.88;28.80;;;;;;;2.56;100.00;99660.47;5013092;28;20037;-70
2023/12/14 04:42:43;;;;;;;54.53;29.02;;;;;;;3.00;100.00;99761.47;5013636;28;20479;-70
2023/12/14 04:45:12;;;;;;;54.83;28.58;;;;;;;3.05;100.00;99754.97;5012153;28;20030;-70
2023/12/14 04:47:38;;;;;;;51.53;29.27;;;;;;;3.06;100.00;99755.84;4995506;28;20396;-71
2023/12/14 04:50:04;;;;;;;52.20;28.25;;;;;;;2.85;100.00;99741.09;5011209;28;20022;-70
2023/12/14 04:52:29;;;;;;;50.17;29.17;;;;;;;2.54;100.00;99675.69;5013451;28;20188;-70
2023/12/14 04:54:55;;;;;;;55.08;28.17;;;;;;;2.91;100.00;99740.56;5013472;28;20467;-70
2023/12/14 04:57:20;;;;;;;56.72;28.80;;;;;;;3.15;100.00;99755.47;5013277;28;20030;-70
2023/12/14 04:59:46;;;;;;;53.38;30.05;;;;;;;3.03;100.00;99771.84;4995187;28;20420;-70
2023/12/14 05:02:11;;;;;;;52.90;30.60;;;;;;;2.97;100.00;99770.66;4994181;28;20035;-70
2023/12/14 05:04:37;;;;;;;57.90;32.70;;;;;;;2.41;100.00;99689.38;4993727;28;20089;-70
2023/12/14 05:07:03;;;;;;;64.68;38.88;;;;;;;2.77;100.00;99756.75;4993623;28;20117;-70
2023/12/14 05:09:28;;;;;;;65.03;36.53;;;;;;;2.71;100.00;99780.22;5006648;28;20032;-70
2023/12/14 05:11:54;;;;;;;57.75;32.92;;;;;;;2.51;100.00;99748.53;5013020;28;20483;-71
2023/12/14 05:14:19;;;;;;;53.38;30.25;;;;;;;2.32;100.00;99739.81;5012982;28;20049;-69
2023/12/14 05:16:45;;;;;;;51.72;29.45;;;;;;;2.47;100.00;99756.75;5013144;28;20524;-70
2023/12/14 05:19:12;;;;;;;55.13;30.63;;;;;;;2.50;100.00;99759.50;5011764;28;20042;-70
2023/12/14 05:21:37;;;;;;;50.92;29.65;;;;;;;2.05;100.00;99678.84;5012815;28;20026;-70
2023/12/14 05:24:03;;;;;;;52.92;29.20;;;;;;;2.45;100.00;99730.34;5012856;28;20026;-70
2023/12/14 05:26:29;;;;;;;54.75;29.40;;;;;;;2.64;100.00;99750.09;5012839;28;20022;-70
2023/12/14 05:28:56;;;;;;;52.35;29.65;;;;;;;2.70;100.00;99751.31;5013125;28;20069;-70
2023/12/14 05:31:22;;;;;;;50.78;29.58;;;;;;;2.69;100.00;99728.28;5027110;28;20034;-70
2023/12/14 05:33:47;;;;;;;52.08;28.83;;;;;;;2.73;100.00;99748.06;5013304;28;20407;-70
2023/12/14 05:36:13;;;;;;;53.50;28.98;;;;;;;2.79;100.00;99760.28;5013067;28;20033;-70
2023/12/14 05:38:39;;;;;;;48.42;28.52;;;;;;;2.70;100.00;99764.03;5012853;28;20388;-70
2023/12/14 05:41:05;;;;;;;54.15;29.88;;;;;;;2.69;100.00;99754.66;5013063;28;20754;-70
2023/12/14 05:43:31;;;;;;;51.88;28.65;;;;;;;2.51;100.00;99735.78;5012712;28;20104;-70
2023/12/14 05:45:57;;;;;;;46.30;26.05;;;;;;;2.62;100.00;99767.84;5012678;28;20095;-70
2023/12/14 05:48:22;;;;;;;50.28;27.77;;;;;;;2.56;100.00;99764.94;5012810;28;20103;-70
2023/12/14 05:50:48;;;;;;;53.75;27.73;;;;;;;2.57;100.00;99747.19;5012756;28;20021;-70
2023/12/14 05:53:13;;;;;;;50.67;28.80;;;;;;;2.35;100.00;99706.84;5012770;28;20022;-70
2023/12/14 05:55:40;;;;;;;50.80;27.95;;;;;;;2.13;100.00;99686.94;5012523;28;20030;-70
2023/12/14 05:58:07;;;;;;;51.45;29.02;;;;;;;2.48;100.00;99754.31;5012169;28;20061;-70
2023/12/14 06:00:34;;;;;;;53.78;28.95;;;;;;;2.46;100.00;99748.25;5012756;28;20104;-70
2023/12/14 06:03:00;;;;;;;55.22;31.75;;;;;;;2.22;100.00;99729.88;5012616;28;20026;-70
2023/12/14 06:05:26;;;;;;;50.28;28.50;;;;;;;2.35;100.00;99742.53;5011297;28;20602;-70
2023/12/14 06:07:52;;;;;;;49.05;29.30;;;;;;;2.55;100.00;99756.41;5012427;28;20029;-70
2023/12/14 06:10:18;;;;;;;50.70;29.45;;;;;;;2.62;100.00;99759.31;5012337;28;20046;-70
2023/12/14 06:12:43;;;;;;;54.83;30.33;;;;;;;2.53;100.00;99777.50;5012640;28;20519;-70
2023/12/14 06:15:10;;;;;;;57.67;34.17;;;;;;;2.35;100.00;99754.41;5012445;28;20492;-70
2023/12/14 06:17:37;;;;;;;52.83;32.30;;;;;;;2.45;100.00;99760.91;5012232;28;20500;-70
2023/12/14 06:20:04;;;;;;;54.17;34.67;;;;;;;2.51;100.00;99776.53;5012297;28;20034;-70
2023/12/14 06:22:29;;;;;;;51.33;32.08;;;;;;;2.53;100.00;99783.50;5012171;28;20061;-70
2023/12/14 06:24:55;;;;;;;53.53;34.38;;;;;;;2.56;100.00;99806.59;5011955;28;20122;-70
2023/12/14 06:27:23;;;;;;;51.15;29.95;;;;;;;2.51;100.00;99791.84;5011967;28;20030;-70
2023/12/14 06:29:48;;;;;;;51.78;31.75;;;;;;;2.54;100.00;99785.25;5012169;28;20034;-70
2023/12/14 06:32:13;;;;;;;50.45;31.25;;;;;;;2.59;100.00;99803.34;5012012;28;20479;-70
2023/12/14 06:34:39;;;;;;;52.33;32.58;;;;;;;2.59;100.00;99804.22;5012046;28;20033;-70
2023/12/14 06:37:05;;;;;;;48.17;30.52;;;;;;;2.52;100.00;99806.34;5011851;28;20036;-70
2023/12/14 06:39:30;;;;;;;52.67;31.92;;;;;;;2.05;100.00;99728.88;5011638;28;20452;-70
2023/12/14 06:41:56;;;;;;;49.80;31.13;;;;;;;2.29;100.00;99770.19;5011337;28;20041;-70
2023/12/14 06:44:21;;;;;;;48.10;31.63;;;;;;;2.43;100.00;99788.84;5011547;28;20034;-70
2023/12/14 06:46:47;;;;;;;50.85;31.17;;;;;;;2.45;100.00;99799.97;5012132;28;20139;-70
2023/12/14 06:49:12;;;;;;;55.75;32.58;;;;;;;2.41;100.00;99798.91;5011759;28;20468;-70
2023/12/14 06:51:38;;;;;;;55.60;31.50;;;;;;;2.38;100.00;99798.75;5011715;28;20037;-71
2023/12/14 06:54:03;;;;;;;51.30;31.00;;;;;;;2.35;100.00;99788.38;5011599;28;20061;-70
2023/12/14 06:56:29;;;;;;;50.85;31.00;;;;;;;2.52;100.00;99812.28;5011415;28;20060;-70
2023/12/14 06:58:54;;;;;;;49.22;29.10;;;;;;;2.62;100.00;99812.81;5011610;28;20042;-70
2023/12/14 07:01:20;;;;;;;50.95;27.35;;;;;;;2.63;100.00;99809.50;5011501;28;20161;-70
2023/12/14 07:03:45;;;;;;;46.97;27.55;;;;;;;2.74;100.00;99803.34;5011544;28;20064;-70
2023/12/14 07:06:19;;;;;;;54.97;32.13;;;;;;;2.86;100.00;99798.06;5011551;28;20034;-71
2023/12/14 07:08:45;;;;;;;55.13;33.22;;;;;;;2.91;100.00;99796.66;5011109;28;20029;-70
2023/12/14 07:11:11;;;;;;;55.08;31.58;;;;;;;2.98;100.00;99800.41;5025474;28;20052;-70
2023/12/14 07:13:37;;;;;;;59.03;30.25;;;;;;;3.03;100.00;99797.34;5011326;28;20049;-70
2023/12/14 07:16:07;;;;;;;55.33;29.90;;;;;;;2.95;100.00;99770.53;5011169;28;20054;-70
2023/12/14 07:18:37;;;;;;;56.22;32.25;;;;;;;3.12;100.00;99798.69;5025350;28;20049;-70
2023/12/14 07:21:03;;;;;;;64.93;37.78;;;;;;;3.18;100.00;99816.88;5025171;28;20041;-70
2023/12/14 07:23:29;;;;;;;53.63;32.17;;;;;;;3.20;100.00;99810.16;5012440;28;20120;-70
2023/12/14 07:25:55;;;;;;;53.70;31.90;;;;;;;3.21;100.00;99817.03;5011221;28;20110;-70
2023/12/14 07:28:20;;;;;;;60.20;34.08;;;;;;;3.12;100.00;99801.22;5011142;28;20125;-70
2023/12/14 07:30:46;;;;;;;58.40;31.90;;;;;;;3.28;100.00;99819.13;5011063;28;20029;-70
2023/12/14 07:33:12;;;;;;;51.42;28.20;;;;;;;3.19;100.00;99814.41;5008897;28;20566;-70
2023/12/14 07:35:38;;;;;;;57.78;31.08;;;;;;;2.94;100.00;99824.00;5010812;28;20516;-70
2023/12/14 07:38:03;;;;;;;55.95;33.20;;;;;;;2.98;100.00;99831.91;5010736;28;20045;-70
2023/12/14 07:40:30;;;;;;;52.75;30.98;;;;;;;3.12;100.00;99834.38;5011086;28;20030;-70
2023/12/14 07:42:56;;;;;;;53.10;32.13;;;;;;;2.65;100.00;99745.06;5010990;28;20034;-70
2023/12/14 07:45:21;;;;;;;55.22;34.35;;;;;;;3.22;100.00;99827.31;5011065;28;20558;-70
2023/12/14 07:47:47;;;;;;;65.53;39.63;;;;;;;3.18;100.00;99812.63;5010999;28;20037;-70
2023/12/14 07:50:13;;;;;;;55.55;34.67;;;;;;;3.22;100.00;99821.34;5010903;28;20123;-70
2023/12/14 07:52:39;;;;;;;55.65;33.67;;;;;;;3.23;100.00;99815.44;5010744;28;20044;-70
2023/12/14 07:55:05;;;;;;;53.28;33.30;;;;;;;2.87;100.00;99747.16;5014236;28;20029;-70
2023/12/14 07:57:31;;;;;;;57.45;34.85;;;;;;;3.21;100.00;99796.63;5014911;28;20074;-70
2023/12/14 07:59:57;;;;;;;60.00;35.97;;;;;;;2.86;100.00;99745.41;5015240;28;20061;-70
2023/12/14 08:02:23;;;;;;;66.85;38.47;;;;;;;3.30;100.00;99816.66;5014689;28;20125;-70
2023/12/14 08:04:48;;;;;;;65.55;40.30;;;;;;;2.74;100.00;99742.16;5014717;28;20037;-70
2023/12/14 08:07:15;;;;;;;64.85;37.33;;;;;;;3.16;100.00;99785.28;5014457;28;20060;-70
2023/12/14 08:09:40;;;;;;;68.13;40.10;;;;;;;3.06;100.00;99779.66;5014698;28;20041;-70
2023/12/14 08:12:06;;;;;;;90.18;46.63;;;;;;;3.19;100.00;99808.41;5014682;28;20029;-70
2023/12/14 08:14:37;;;;;;;75.25;40.95;;;;;;;3.24;100.00;99812.97;5014643;28;20469;-70
2023/12/14 08:17:03;;;;;;;72.22;41.15;;;;;;;3.36;100.00;99822.97;5044855;28;20065;-70
2023/12/14 08:19:29;;;;;;;73.10;42.42;;;;;;;3.45;100.00;99811.53;5014311;28;20026;-70
2023/12/14 08:21:54;;;;;;;69.88;39.45;;;;;;;3.27;100.00;99804.63;5014634;28;20033;-70
2023/12/14 08:24:20;;;;;;;95.28;58.17;;;;;;;3.10;100.00;99774.75;5014347;28;20096;-70
2023/12/14 08:26:45;;;;;;;80.30;47.22;;;;;;;3.54;100.00;99814.59;5013264;28;20041;-70
2023/12/14 08:29:11;;;;;;;68.13;37.38;;;;;;;3.61;100.00;99809.00;5014439;28;20451;-70
2023/12/14 08:31:36;;;;;;;66.43;36.83;;;;;;;3.59;100.00;99808.06;5014147;28;20060;-70
2023/12/14 08:34:03;;;;;;;64.68;36.25;;;;;;;3.62;100.00;99804.78;5014197;28;20061;-70
2023/12/14 08:36:29;;;;;;;63.97;35.78;;;;;;;3.76;100.00;99808.06;5013963;28;20030;-70
2023/12/14 08:38:54;;;;;;;65.47;37.15;;;;;;;3.78;100.00;99803.94;5013708;28;20037;-71
2023/12/14 08:41:20;;;;;;;72.07;39.47;;;;;;;3.68;100.00;99769.38;5014084;28;20546;-70
2023/12/14 08:43:45;;;;;;;66.75;40.03;;;;;;;3.95;100.00;99804.81;5013801;28;20025;-70
2023/12/14 08:46:10;;;;;;;68.35;40.53;;;;;;;3.97;100.00;99804.09;5014006;28;20034;-70
2023/12/14 08:48:36;;;;;;;66.03;40.97;;;;;;;3.99;100.00;99801.66;5013785;28;20034;-70
2023/12/14 08:51:01;;;;;;;79.18;44.47;;;;;;;4.09;100.00;99802.97;5013720;28;20100;-70
2023/12/14 08:53:28;;;;;;;78.43;44.60;;;;;;;4.17;100.00;99792.34;5013704;28;20037;-70
2023/12/14 08:55:54;;;;;;;75.55;42.42;;;;;;;4.21;100.00;99790.84;5013909;28;20033;-70
2023/12/14 08:58:19;;;;;;;63.63;38.38;;;;;;;4.19;100.00;99793.31;5013671;28;20034;-70
2023/12/14 09:00:45;;;;;;;66.93;40.72;;;;;;;4.21;100.00;99804.50;5013770;28;20024;-70
2023/12/14 09:03:10;;;;;;;69.13;40.60;;;;;;;4.20;100.00;99812.09;5013638;28;20655;-70
2023/12/14 09:05:36;;;;;;;68.22;39.55;;;;;;;3.76;100.00;99723.81;5012847;28;20510;-70
2023/12/14 09:08:02;;;;;;;65.88;38.42;;;;;;;3.83;100.00;99731.03;5013453;28;20030;-70
2023/12/14 09:10:28;;;;;;;66.95;38.38;;;;;;;4.24;100.00;99783.34;5013656;28;20037;-70
2023/12/14 09:12:53;;;;;;;67.13;38.03;;;;;;;4.38;100.00;99778.94;5013534;28;20554;-70
2023/12/14 09:15:19;;;;;;;70.00;40.05;;;;;;;4.44;100.00;99794.56;5013549;28;20037;-70
2023/12/14 09:17:44;;;;;;;64.95;38.63;;;;;;;4.12;100.00;99735.03;5013125;28;20556;-71
2023/12/14 09:20:11;;;;;;;61.13;36.25;;;;;;;4.42;100.00;99788.50;5013139;28;20053;-70
2023/12/14 09:22:36;;;;;;;53.90;32.30;;;;;;;4.13;100.00;99728.28;5013384;28;20034;-70
2023/12/14 09:25:03;;;;;;;56.65;33.20;;;;;;;4.41;100.00;99786.78;5013582;28;20115;-70
2023/12/14 09:27:29;;;;;;;57.17;33.88;;;;;;;4.47;100.00;99796.41;5013349;28;20033;-70
2023/12/14 09:29:54;;;;;;;57.15;32.90;;;;;;;4.44;100.00;99791.16;5013186;28;20048;-70
2023/12/14 09:32:20;;;;;;;62.75;36.42;;;;;;;4.49;100.00;99793.13;5013125;28;20029;-70
2023/12/14 09:34:45;;;;;;;72.18;42.67;;;;;;;4.50;100.00;99786.34;5012796;28;20034;-70
2023/12/14 09:37:13;;;;;;;65.80;38.78;;;;;;;4.51;100.00;99791.53;5013224;28;20399;-70
2023/12/14 09:39:38;;;;;;;63.03;37.05;;;;;;;4.24;100.00;99723.69;5012949;28;20042;-71
2023/12/14 09:42:05;;;;;;;61.20;38.17;;;;;;;3.95;100.00;99669.47;5013046;28;20033;-70
2023/12/14 09:44:32;;;;;;;59.45;36.47;;;;;;;4.69;100.00;99773.66;5012792;28;20475;-70
2023/12/14 09:47:02;;;;;;;54.85;35.30;;;;;;;4.28;100.00;99684.75;5012703;28;20061;-70
2023/12/14 09:49:29;;;;;;;59.92;36.72;;;;;;;4.80;100.00;99771.66;5012664;28;20034;-70
2023/12/14 09:51:58;;;;;;;63.97;38.95;;;;;;;4.70;100.00;99754.09;5012795;28;20033;-70
2023/12/14 09:54:24;;;;;;;55.50;34.95;;;;;;;4.70;100.00;99764.34;5012967;28;20034;-70
2023/12/14 09:56:52;;;;;;;59.75;34.30;;;;;;;4.70;100.00;99754.09;5012655;28;20133;-70
2023/12/14 09:59:17;;;;;;;54.03;32.78;;;;;;;4.87;100.00;99760.00;5012540;28;20125;-70
2023/12/14 10:01:43;;;;;;;54.65;34.25;;;;;;;4.82;100.00;99753.81;5012282;28;20109;-70
2023/12/14 10:04:09;;;;;;;54.63;33.28;;;;;;;4.86;100.00;99755.72;5012622;28;20451;-70
2023/12/14 10:06:35;;;;;;;53.42;31.67;;;;;;;4.94;100.00;99753.53;5012577;28;20034;-70
2023/12/14 10:09:01;;;;;;;53.40;33.13;;;;;;;4.35;100.00;99635.69;5012505;28;20026;-70
2023/12/14 10:11:26;;;;;;;54.20;33.65;;;;;;;5.13;100.00;99750.16;5012285;28;20408;-70
2023/12/14 10:13:52;;;;;;;56.20;32.95;;;;;;;5.25;100.00;99770.34;5012411;28;20026;-70
2023/12/14 10:16:28;;;;;;;56.15;34.40;;;;;;;5.27;100.00;99746.56;5012006;28;20054;-70
2023/12/14 10:18:55;;;;;;;56.05;33.33;;;;;;;5.28;100.00;99743.22;5011702;28;20022;-70
2023/12/14 10:21:21;;;;;;;57.85;32.95;;;;;;;5.21;100.00;99743.72;5012132;28;20460;-70
2023/12/14 10:23:46;;;;;;;63.72;37.53;;;;;;;5.20;100.00;99739.41;5012236;28;20061;-70
2023/12/14 10:26:12;;;;;;;63.05;35.72;;;;;;;5.14;100.00;99705.88;5011609;28;20053;-71
2023/12/14 10:28:40;;;;;;;64.18;37.03;;;;;;;4.69;100.00;99625.38;5011119;28;20416;-70
2023/12/14 10:31:05;;;;;;;62.22;36.20;;;;;;;5.34;100.00;99738.34;5011748;28;20040;-70
2023/12/14 10:33:31;;;;;;;60.00;36.70;;;;;;;5.37;100.00;99735.09;5012075;28;20116;-70
2023/12/14 10:35:57;;;;;;;74.38;42.35;;;;;;;5.44;100.00;99731.97;5011847;28;20104;-70
2023/12/14 10:38:25;;;;;;;59.47;34.90;;;;;;;5.45;100.00;99718.38;5011244;28;20395;-70
2023/12/14 10:40:53;;;;;;;60.27;35.03;;;;;;;5.40;100.00;99711.31;5011752;28;20492;-70
2023/12/14 10:43:19;;;;;;;60.92;35.42;;;;;;;5.51;100.00;99728.88;5011594;28;20025;-70
2023/12/14 10:45:47;;;;;;;56.72;34.40;;;;;;;4.82;100.00;99595.25;5011645;28;20116;-70
2023/12/14 10:48:13;;;;;;;57.58;34.42;;;;;;;5.57;100.00;99704.38;5011701;28;20404;-69
2023/12/14 10:50:42;;;;;;;62.25;35.47;;;;;;;5.61;100.00;99696.03;5011671;28;20042;-70
2023/12/14 10:53:08;;;;;;;58.20;36.55;;;;;;;5.65;100.00;99691.09;5011605;28;20026;-70
2023/12/14 10:55:40;;;;;;;59.72;36.40;;;;;;;5.67;100.00;99676.69;5011500;28;20037;-70
2023/12/14 10:58:08;;;;;;;63.65;36.28;;;;;;;5.73;100.00;99688.00;5011333;28;20030;-70
2023/12/14 11:00:34;;;;;;;61.40;37.35;;;;;;;5.75;100.00;99688.94;5011074;28;20026;-70
2023/12/14 11:03:00;;;;;;;59.35;35.97;;;;;;;5.80;100.00;99679.78;5011659;28;20091;-70
2023/12/14 11:05:30;;;;;;;61.13;37.05;;;;;;;5.84;100.00;99671.41;5011642;28;20117;-70
2023/12/14 11:08:03;;;;;;;54.22;34.95;;;;;;;5.85;100.00;99668.03;5011225;28;20062;-70
2023/12/14 11:10:37;;;;;;;57.45;35.38;;;;;;;5.87;100.00;99645.94;5011100;28;20025;-70